SM2GSR-2 Lycksele SE current weather conditions

sailwx.info

Wind from 298 at 0 knots gusting 7

Air temperature 6.7° C
Dewpoint 5.1° C

Last reported at 2020-Jul-05 04:05 UTC.
Time now 2020-Jul-05 04:45 UTC

Location: N 64°45' E 018°09'.
View on Google Maps.

See reports from other nearby stations

  
Tides and Currents Weather Stations Pressure Air Temp Water Temp Dewpoint Dewpoint Depression Visibility Wind Speed Wind Dir Waves Ship Positions
date/time (UTC)wind fromknots sea level pressurealtimeterstation pressurevisibilityair tempwater tempwave heightnotes
2020-Jul-05 04:05 298 0 gusting 7 6.7
2020-Jul-05 04:00 287 1 gusting 7 6.7
2020-Jul-05 03:55 232 6.1
2020-Jul-05 03:45 311 1 gusting 7 6.1
2020-Jul-05 03:40 304 2 gusting 8 6.1
2020-Jul-05 03:35 285 1 gusting 7 6.1
2020-Jul-05 03:25 287 5 gusting 10 5.6
2020-Jul-05 03:15 275 2 gusting 7 5.6
2020-Jul-05 03:05 285 2 gusting 6 5.6
2020-Jul-05 03:00 292 1 gusting 7 5.6
2020-Jul-05 02:55 286 1 gusting 7 5.6
2020-Jul-05 02:45 279 0 gusting 6 6.1
2020-Jul-05 02:35 268 6.1
2020-Jul-05 02:30 273 6.1
2020-Jul-05 02:25 281 2 gusting 6 6.1
2020-Jul-05 02:15 297 1 gusting 6 6.1
2020-Jul-05 02:05 259 0 gusting 6 6.1
2020-Jul-05 02:00 274 6.1
2020-Jul-05 01:55 287 1 gusting 7 6.1
2020-Jul-05 01:45 270 6.1
2020-Jul-05 01:35 274 6.7
2020-Jul-05 01:25 243 0 gusting 6 6.7
2020-Jul-05 01:05 271 0 gusting 6 6.7
2020-Jul-05 01:00 248 6.7
2020-Jul-05 00:55 261 6.7
2020-Jul-05 00:45 257 6.7
2020-Jul-05 00:35 290 0 gusting 6 6.7
2020-Jul-05 00:25 276 0 gusting 6 6.7
2020-Jul-05 00:15 254 0 gusting 6 6.7
2020-Jul-05 00:05 280 6.7
2020-Jul-05 00:00 236 6.7
2020-Jul-04 23:51 270 0 gusting 5 6.7
2020-Jul-04 23:45 289 3 gusting 10 6.7
2020-Jul-04 23:35 272 2 gusting 8 6.7
2020-Jul-04 23:30 265 2 gusting 7 6.7
2020-Jul-04 23:25 285 1 gusting 4 6.7
2020-Jul-04 23:15 249 0 gusting 2 6.7
2020-Jul-04 23:05 300 0 gusting 6 6.7
2020-Jul-04 22:55 282 0 gusting 6 6.7
2020-Jul-04 22:45 283 0 gusting 6 6.7
2020-Jul-04 22:35 255 0 gusting 5 6.7
2020-Jul-04 22:25 310 0 gusting 4 6.7
2020-Jul-04 22:15 274 0 gusting 4 6.7
2020-Jul-04 22:05 285 0 gusting 5 6.7
2020-Jul-04 21:55 300 0 gusting 10 6.7
2020-Jul-04 21:50 311 0 gusting 5 6.7
2020-Jul-04 21:45 287 2 gusting 7 6.7
2020-Jul-04 21:35 282 0 gusting 6 6.7
2020-Jul-04 21:25 201 1 gusting 6 6.1
2020-Jul-04 21:15 305 1 gusting 7 6.1
2020-Jul-04 21:05 293 1 gusting 6 6.1
2020-Jul-04 21:00 268 0 gusting 4 6.1
2020-Jul-04 20:55 254 3 gusting 8 6.1
2020-Jul-04 20:45 313 2 gusting 7 6.1
2020-Jul-04 20:35 266 2 gusting 8 6.7
2020-Jul-04 20:25 293 6 gusting 11 6.7
2020-Jul-04 20:15 291 5 gusting 13 6.7
2020-Jul-04 20:10 308 2 gusting 8 6.7
2020-Jul-04 20:05 284 4 gusting 10 6.7
2020-Jul-04 20:00 293 1 gusting 13 6.1
2020-Jul-04 19:55 301 3 gusting 11 6.1
2020-Jul-04 19:45 291 1 gusting 7 6.1
2020-Jul-04 19:35 289 5 gusting 12 6.1
2020-Jul-04 19:25 288 2 gusting 12 6.1
2020-Jul-04 19:15 273 1 gusting 8 6.1
2020-Jul-04 19:05 301 4 gusting 10 6.7
2020-Jul-04 19:00 298 5 gusting 11 6.7
2020-Jul-04 18:55 298 5 gusting 11 6.7
2020-Jul-04 18:45 297 4 gusting 8 6.7
2020-Jul-04 18:35 259 5 gusting 12 7.2
2020-Jul-04 18:25 299 5 gusting 11 7.2
2020-Jul-04 18:15 287 2 gusting 11 7.2
2020-Jul-04 18:05 299 1 gusting 10 7.2
2020-Jul-04 18:00 276 3 gusting 12 7.2
2020-Jul-04 17:55 284 6 gusting 11 7.8
2020-Jul-04 17:45 275 4 gusting 10 7.8
2020-Jul-04 17:35 316 4 gusting 10 8.3
2020-Jul-04 17:25 309 3 gusting 10 8.3
2020-Jul-04 17:15 298 3 gusting 12 8.9
2020-Jul-04 17:05 287 5 gusting 11 8.9
2020-Jul-04 16:55 296 1 gusting 6 8.9
2020-Jul-04 16:45 308 2 gusting 13 8.9
2020-Jul-04 16:35 287 3 gusting 10 8.9
2020-Jul-04 16:25 277 5 gusting 10 8.9
2020-Jul-04 16:15 294 3 gusting 10 8.9
2020-Jul-04 16:05 292 5 gusting 10 9.4
2020-Jul-04 16:00 320 2 gusting 8 9.4
2020-Jul-04 15:55 295 5 gusting 13 9.4
2020-Jul-04 15:45 287 6 gusting 12 10.0
2020-Jul-04 15:35 300 6 gusting 11 10.6
2020-Jul-04 15:25 334 6 gusting 13 10.6
2020-Jul-04 15:20 301 6 gusting 11 11.1
2020-Jul-04 15:15 290 4 gusting 8 10.6
2020-Jul-04 15:05 299 2 gusting 7 11.1
2020-Jul-04 15:00 287 6 gusting 12 11.1
2020-Jul-04 14:55 320 2 gusting 6 11.1
2020-Jul-04 14:45 296 4 gusting 8 11.7
2020-Jul-04 14:35 307 6 gusting 11 12.2
2020-Jul-04 14:25 301 5 gusting 10 11.7
2020-Jul-04 14:15 275 4 gusting 7 11.1
2020-Jul-04 14:05 278 2 gusting 10 10.6
2020-Jul-04 13:55 286 0 gusting 4 10.6
2020-Jul-04 13:45 319 1 gusting 8 11.1
2020-Jul-04 13:35 247 11.1
2020-Jul-04 13:25 306 0 gusting 4 10.6
2020-Jul-04 13:15 279 1 gusting 2 10.6
2020-Jul-04 13:10 275 0 gusting 6 10.6
2020-Jul-04 13:05 304 2 gusting 7 11.1
2020-Jul-04 12:55 256 11.1
2020-Jul-04 12:45 284 11.7
2020-Jul-04 12:40 291 11.1
2020-Jul-04 12:35 283 11.1
2020-Jul-04 12:25 227 10.6
2020-Jul-04 12:20 227 10.6
2020-Jul-04 12:15 226 0 gusting 2 10.6
2020-Jul-04 12:05 224 10.0
2020-Jul-04 12:00 224 9.4
2020-Jul-04 11:55 224 9.4
2020-Jul-04 11:45 224 9.4
2020-Jul-04 11:40 224 9.4
2020-Jul-04 11:35 224 9.4
2020-Jul-04 11:25 278 10.0
2020-Jul-04 11:15 250 10.0
2020-Jul-04 11:06 225 10.0
2020-Jul-04 11:01 275 10.0
2020-Jul-04 10:55 273 10.0
2020-Jul-04 10:45 284 0 gusting 2 10.0
2020-Jul-04 10:35 250 10.6
2020-Jul-04 10:25 289 0 gusting 4 10.0
2020-Jul-04 10:15 115 9.4
2020-Jul-04 10:05 115 9.4
2020-Jul-04 09:55 115 8.9
2020-Jul-04 09:45 115 8.3
2020-Jul-04 09:35 114 8.3
2020-Jul-04 09:25 115 7.8
2020-Jul-04 09:15 062 0 gusting 5 7.8
2020-Jul-04 09:05 057 7.8
2020-Jul-04 09:00 059 7.8
2020-Jul-04 08:55 067 7.8
2020-Jul-04 08:45 006 7.8
2020-Jul-04 08:35 355 0 gusting 4 7.2
2020-Jul-04 08:25 336 0 gusting 2 7.2
2020-Jul-04 08:15 351 0 gusting 4 7.2
2020-Jul-04 08:05 010 7.2
2020-Jul-04 08:00 066 7.2
2020-Jul-04 07:55 066 7.2
2020-Jul-04 07:45 071 7.2
2020-Jul-04 07:40 073 6.7
2020-Jul-04 07:35 045 0 gusting 2 6.7
2020-Jul-04 07:25 071 1 gusting 6 6.7
2020-Jul-04 07:15 087 6.7
2020-Jul-04 07:05 088 6.7
2020-Jul-04 07:00 088 6.7
2020-Jul-04 06:55 088 0 gusting 2 6.7
2020-Jul-04 06:45 103 6.7
2020-Jul-04 06:40 058 6.7
2020-Jul-04 06:35 340 6.7
2020-Jul-04 06:25 307 6.1
2020-Jul-04 06:21 306 6.1
2020-Jul-04 06:15 306 6.1
2020-Jul-04 06:05 240 6.1
2020-Jul-04 06:00 240 6.1
2020-Jul-04 05:55 240 6.1
2020-Jul-04 05:45 240 6.1
2020-Jul-04 05:35 240 0 gusting 2 6.1
2020-Jul-04 05:25 240 5.6
2020-Jul-04 05:15 240 5.6
2020-Jul-04 05:05 240 5.6
2020-Jul-04 05:00 240 5.6
2020-Jul-04 04:55 240 5.6
2020-Jul-04 04:45 240 5.6
2020-Jul-04 04:40 240 5.6
2020-Jul-04 04:35 240 5.6
2020-Jul-04 04:25 240 5.6
2020-Jul-04 04:15 240 5.0
2020-Jul-04 04:05 240 5.0
2020-Jul-04 03:55 240 5.0
2020-Jul-04 03:45 240 4.4
2020-Jul-04 03:35 240 4.4
2020-Jul-04 03:25 240 3.9
2020-Jul-04 03:15 240 3.9
2020-Jul-04 03:05 240 3.9
2020-Jul-04 03:00 240 3.9
2020-Jul-04 02:55 240 3.9
2020-Jul-04 02:45 240 3.3
2020-Jul-04 02:35 240 3.3
2020-Jul-04 02:25 240 3.3
2020-Jul-04 02:15 240 2.2
2020-Jul-04 02:05 240 1.7
2020-Jul-04 01:55 240 1.7
2020-Jul-04 01:45 240 1.1
2020-Jul-04 01:35 240 1.1
2020-Jul-04 01:25 240 1.1
2020-Jul-04 01:15 240 1.1
2020-Jul-04 01:05 240 0.6
2020-Jul-04 01:00 240 0.6
2020-Jul-04 00:55 240 0.6
2020-Jul-04 00:45 240 0.6
2020-Jul-04 00:35 240 0.6
2020-Jul-04 00:25 240 0.6
2020-Jul-04 00:15 240 0.6
2020-Jul-04 00:05 240 0.6
2020-Jul-04 00:00 240 0.6
2020-Jul-03 23:55 240 0.6
2020-Jul-03 23:45 240 0.6
2020-Jul-03 23:35 240 0.6
2020-Jul-03 23:25 240 1.1
2020-Jul-03 23:15 240 1.1
2020-Jul-03 23:05 240 1.1
2020-Jul-03 23:00 240 1.1
2020-Jul-03 22:55 240 1.1
2020-Jul-03 22:50 240 1.1
2020-Jul-03 22:45 240 1.1
2020-Jul-03 22:35 240 1.7
2020-Jul-03 22:25 240 1.7
2020-Jul-03 22:15 240 1.7
2020-Jul-03 22:05 240 2.2
2020-Jul-03 22:00 240 2.2
2020-Jul-03 21:55 240 2.2
2020-Jul-03 21:45 240 2.8
2020-Jul-03 21:35 240 2.8
2020-Jul-03 21:25 240 3.3
2020-Jul-03 21:15 240 3.3
2020-Jul-03 21:05 240 3.9
2020-Jul-03 21:00 240 3.9
2020-Jul-03 20:55 240 3.9
2020-Jul-03 20:45 240 4.4
2020-Jul-03 20:35 240 5.0
2020-Jul-03 20:25 240 5.6
2020-Jul-03 20:15 240 5.6
2020-Jul-03 20:05 240 6.7
2020-Jul-03 20:00 240 6.7
2020-Jul-03 19:55 240 7.2
2020-Jul-03 19:45 240 7.8
2020-Jul-03 19:35 240 8.3
2020-Jul-03 19:25 240 8.9
2020-Jul-03 19:15 240 9.4
2020-Jul-03 19:05 240 10.0
2020-Jul-03 19:00 240 10.0
2020-Jul-03 18:55 240 10.0
2020-Jul-03 18:45 240 10.6
2020-Jul-03 18:35 240 10.0
2020-Jul-03 18:25 240 10.0
2020-Jul-03 18:15 239 10.0
2020-Jul-03 18:10 279 10.0
2020-Jul-03 18:05 279 10.0
2020-Jul-03 18:00 279 9.4
2020-Jul-03 17:55 279 9.4
2020-Jul-03 17:45 241 9.4
2020-Jul-03 17:35 294 9.4
2020-Jul-03 17:25 279 0 gusting 6 9.4
2020-Jul-03 17:15 294 0 gusting 4 9.4
2020-Jul-03 17:05 309 9.4
2020-Jul-03 17:00 296 1 gusting 6 9.4
2020-Jul-03 16:55 297 10.0
2020-Jul-03 16:45 294 10.0
2020-Jul-03 16:35 284 9.4
2020-Jul-03 16:25 279 9.4
2020-Jul-03 16:15 316 9.4
2020-Jul-03 16:05 317 9.4
2020-Jul-03 16:00 320 8.9
2020-Jul-03 15:55 320 8.9
2020-Jul-03 15:45 012 8.9
2020-Jul-03 15:35 012 8.3
2020-Jul-03 15:25 012 8.3
2020-Jul-03 15:15 012 8.3
2020-Jul-03 15:05 012 8.3
2020-Jul-03 15:00 012 8.3
2020-Jul-03 14:55 012 0 gusting 5 8.9
2020-Jul-03 14:45 322 0 gusting 5 10.0
2020-Jul-03 14:35 109 10.6
2020-Jul-03 14:25 109 10.6
2020-Jul-03 14:15 062 0 gusting 2 11.1
2020-Jul-03 14:05 010 0 gusting 6 10.0
2020-Jul-03 13:55 9.4
2020-Jul-03 13:45 325 0 gusting 2 9.4
2020-Jul-03 13:35 330 1 gusting 6 10.0
2020-Jul-03 13:25 314 1 gusting 5 9.4
2020-Jul-03 13:15 304 0 gusting 6 9.4
2020-Jul-03 13:05 298 8.9
2020-Jul-03 12:55 310 8.3
2020-Jul-03 12:45 314 8.9
2020-Jul-03 12:35 339 8.9
2020-Jul-03 12:25 320 0 gusting 5 9.4
2020-Jul-03 12:15 014 1 gusting 6 9.4
2020-Jul-03 12:10 330 0 gusting 6 9.4
2020-Jul-03 12:05 340 0 gusting 4 9.4
2020-Jul-03 12:00 344 1 gusting 6 9.4
2020-Jul-03 11:55 043 0 gusting 4 8.9
2020-Jul-03 11:45 331 1 gusting 5 8.3
2020-Jul-03 11:35 330 8.3
2020-Jul-03 11:25 327 0 gusting 4 8.3
2020-Jul-03 11:15 031 8.3
2020-Jul-03 11:05 009 8.3
2020-Jul-03 11:00 029 7.8
2020-Jul-03 10:55 019 7.8
2020-Jul-03 10:45 038 0 gusting 6 7.8
2020-Jul-03 10:35 317 0 gusting 7 8.3
2020-Jul-03 10:25 278 4 gusting 6 8.3
2020-Jul-03 10:15 310 1 gusting 6 8.9
2020-Jul-03 10:05 297 2 gusting 6 8.3
2020-Jul-03 10:00 316 8.3
2020-Jul-03 09:55 331 0 gusting 7 8.3
2020-Jul-03 09:45 312 0 gusting 2 8.3
2020-Jul-03 09:35 314 1 gusting 4 8.3
2020-Jul-03 09:25 302 0 gusting 4 8.3
2020-Jul-03 09:15 284 8.3
2020-Jul-03 09:05 298 8.3
2020-Jul-03 09:00 296 0 gusting 5 7.8
2020-Jul-03 08:50 339 7.8
2020-Jul-03 08:45 315 7.8
2020-Jul-03 08:35 015 7.8
2020-Jul-03 08:25 028 7.2
2020-Jul-03 08:15 346 7.2
2020-Jul-03 08:10 329 0 gusting 4 7.2
2020-Jul-03 08:05 081 7.2
2020-Jul-03 08:00 053 7.2
2020-Jul-03 07:55 005 7.2
2020-Jul-03 07:45 035 6.7
2020-Jul-03 07:40 005 0 gusting 2 6.7
2020-Jul-03 07:35 330 0 gusting 2 7.2
2020-Jul-03 07:25 337 0 gusting 2 7.2
2020-Jul-03 07:15 033 0 gusting 5 7.2
2020-Jul-03 07:05 013 6.7
2020-Jul-03 07:00 032 0 gusting 2 6.7
2020-Jul-03 06:55 043 6.7
2020-Jul-03 06:45 041 7.2
2020-Jul-03 06:40 063 7.2
2020-Jul-03 06:35 070 7.2
2020-Jul-03 06:25 350 7.2
2020-Jul-03 06:15 284 7.2
2020-Jul-03 06:05 002 1 gusting 4 7.2
2020-Jul-03 06:00 324 7.2
2020-Jul-03 05:55 004 0 gusting 4 7.2
2020-Jul-03 05:45 348 7.2
2020-Jul-03 05:35 029 6.7
2020-Jul-03 05:30 029 6.7
2020-Jul-03 05:25 031 6.7
2020-Jul-03 05:15 026 6.7
2020-Jul-03 05:05 328 0 gusting 4 7.2
2020-Jul-03 05:00 329 7.2
2020-Jul-03 04:55 329 6.7
2020-Jul-03 04:45 336 0 gusting 2 6.7
2020-Jul-03 04:35 334 6.7
2020-Jul-03 04:25 025 0 gusting 5 6.7
2020-Jul-03 04:20 029 6.7
2020-Jul-03 04:15 015 6.7
2020-Jul-03 04:10 339 6.7
2020-Jul-03 04:05 338 6.7
2020-Jul-03 04:00 332 0 gusting 2 6.7